sensor_id;sensor_type;location;lat;lon;timestamp;P1;durP1;ratioP1;P2;durP2;ratioP2
7432;SDS011;32233;49.500;7.764;2023-02-15T00:01:50;68.53;;;24.90;;
7432;SDS011;32233;49.500;7.764;2023-02-15T00:04:18;63.00;;;23.83;;
7432;SDS011;32233;49.500;7.764;2023-02-15T00:06:47;59.10;;;21.93;;
7432;SDS011;32233;49.500;7.764;2023-02-15T00:09:13;63.43;;;24.50;;
7432;SDS011;32233;49.500;7.764;2023-02-15T00:11:40;52.00;;;22.60;;
7432;SDS011;32233;49.500;7.764;2023-02-15T00:14:09;63.10;;;23.27;;
7432;SDS011;32233;49.500;7.764;2023-02-15T00:16:38;66.83;;;23.87;;
7432;SDS011;32233;49.500;7.764;2023-02-15T00:19:06;65.23;;;23.10;;
7432;SDS011;32233;49.500;7.764;2023-02-15T00:21:32;50.03;;;22.20;;
7432;SDS011;32233;49.500;7.764;2023-02-15T00:24:00;56.90;;;23.23;;
7432;SDS011;32233;49.500;7.764;2023-02-15T00:26:29;56.27;;;23.33;;
7432;SDS011;32233;49.500;7.764;2023-02-15T00:28:56;55.33;;;23.47;;
7432;SDS011;32233;49.500;7.764;2023-02-15T00:31:26;51.87;;;22.17;;
7432;SDS011;32233;49.500;7.764;2023-02-15T00:33:54;57.27;;;23.10;;
7432;SDS011;32233;49.500;7.764;2023-02-15T00:36:21;71.43;;;22.40;;
7432;SDS011;32233;49.500;7.764;2023-02-15T00:38:47;66.23;;;22.40;;
7432;SDS011;32233;49.500;7.764;2023-02-15T00:41:15;63.27;;;23.37;;
7432;SDS011;32233;49.500;7.764;2023-02-15T00:43:42;56.13;;;22.23;;
7432;SDS011;32233;49.500;7.764;2023-02-15T00:46:08;61.23;;;22.43;;
7432;SDS011;32233;49.500;7.764;2023-02-15T00:48:35;54.83;;;22.73;;
7432;SDS011;32233;49.500;7.764;2023-02-15T00:51:02;59.10;;;23.00;;
7432;SDS011;32233;49.500;7.764;2023-02-15T00:53:29;63.30;;;21.93;;
7432;SDS011;32233;49.500;7.764;2023-02-15T00:55:56;48.43;;;22.50;;
7432;SDS011;32233;49.500;7.764;2023-02-15T00:58:24;59.10;;;23.63;;
7432;SDS011;32233;49.500;7.764;2023-02-15T01:00:51;55.13;;;21.90;;
7432;SDS011;32233;49.500;7.764;2023-02-15T01:03:18;57.77;;;23.87;;
7432;SDS011;32233;49.500;7.764;2023-02-15T01:05:47;51.37;;;22.30;;
7432;SDS011;32233;49.500;7.764;2023-02-15T01:08:15;51.43;;;21.97;;
7432;SDS011;32233;49.500;7.764;2023-02-15T01:10:42;57.27;;;23.63;;
7432;SDS011;32233;49.500;7.764;2023-02-15T01:13:10;50.17;;;22.47;;
7432;SDS011;32233;49.500;7.764;2023-02-15T01:15:36;58.57;;;23.23;;
7432;SDS011;32233;49.500;7.764;2023-02-15T01:18:03;67.67;;;22.87;;
7432;SDS011;32233;49.500;7.764;2023-02-15T01:20:30;55.23;;;22.30;;
7432;SDS011;32233;49.500;7.764;2023-02-15T01:22:59;55.93;;;21.63;;
7432;SDS011;32233;49.500;7.764;2023-02-15T01:25:26;52.57;;;22.30;;
7432;SDS011;32233;49.500;7.764;2023-02-15T01:27:54;43.97;;;21.57;;
7432;SDS011;32233;49.500;7.764;2023-02-15T01:30:20;50.30;;;23.20;;
7432;SDS011;32233;49.500;7.764;2023-02-15T01:32:47;51.60;;;21.77;;
7432;SDS011;32233;49.500;7.764;2023-02-15T01:35:13;51.83;;;23.00;;
7432;SDS011;32233;49.500;7.764;2023-02-15T01:37:40;53.47;;;23.53;;
7432;SDS011;32233;49.500;7.764;2023-02-15T01:40:07;48.97;;;22.87;;
7432;SDS011;32233;49.500;7.764;2023-02-15T01:42:38;52.00;;;23.27;;
7432;SDS011;32233;49.500;7.764;2023-02-15T01:45:14;45.90;;;21.60;;
7432;SDS011;32233;49.500;7.764;2023-02-15T01:47:49;55.17;;;22.27;;
7432;SDS011;32233;49.500;7.764;2023-02-15T01:50:27;47.50;;;21.90;;
7432;SDS011;32233;49.500;7.764;2023-02-15T01:53:04;53.97;;;22.77;;
7432;SDS011;32233;49.500;7.764;2023-02-15T01:55:37;50.93;;;22.90;;
7432;SDS011;32233;49.500;7.764;2023-02-15T01:58:08;50.17;;;22.93;;
7432;SDS011;32233;49.500;7.764;2023-02-15T02:00:35;44.63;;;21.93;;
7432;SDS011;32233;49.500;7.764;2023-02-15T02:03:02;50.53;;;23.57;;
7432;SDS011;32233;49.500;7.764;2023-02-15T02:05:29;54.97;;;22.40;;
7432;SDS011;32233;49.500;7.764;2023-02-15T02:07:57;51.60;;;22.30;;
7432;SDS011;32233;49.500;7.764;2023-02-15T02:10:26;64.93;;;22.00;;
7432;SDS011;32233;49.500;7.764;2023-02-15T02:12:57;55.53;;;23.53;;
7432;SDS011;32233;49.500;7.764;2023-02-15T02:15:31;53.20;;;23.70;;
7432;SDS011;32233;49.500;7.764;2023-02-15T02:32:19;54.53;;;21.97;;
7432;SDS011;32233;49.500;7.764;2023-02-15T02:34:52;54.37;;;23.73;;
7432;SDS011;32233;49.500;7.764;2023-02-15T02:37:30;45.70;;;21.80;;
7432;SDS011;32233;49.500;7.764;2023-02-15T02:43:02;45.67;;;21.13;;
7432;SDS011;32233;49.500;7.764;2023-02-15T02:45:41;53.43;;;23.20;;
7432;SDS011;32233;49.500;7.764;2023-02-15T02:48:13;56.63;;;23.37;;
7432;SDS011;32233;49.500;7.764;2023-02-15T02:50:47;54.13;;;22.60;;
7432;SDS011;32233;49.500;7.764;2023-02-15T02:53:15;57.53;;;22.83;;
7432;SDS011;32233;49.500;7.764;2023-02-15T02:58:49;50.37;;;22.67;;
7432;SDS011;32233;49.500;7.764;2023-02-15T03:01:33;53.20;;;22.17;;
7432;SDS011;32233;49.500;7.764;2023-02-15T03:04:10;51.07;;;22.27;;
7432;SDS011;32233;49.500;7.764;2023-02-15T03:06:46;49.30;;;22.87;;
7432;SDS011;32233;49.500;7.764;2023-02-15T03:09:21;58.10;;;21.83;;
7432;SDS011;32233;49.500;7.764;2023-02-15T03:12:11;45.37;;;21.57;;
7432;SDS011;32233;49.500;7.764;2023-02-15T03:14:45;46.67;;;22.00;;
7432;SDS011;32233;49.500;7.764;2023-02-15T03:17:15;57.23;;;21.97;;
7432;SDS011;32233;49.500;7.764;2023-02-15T03:19:45;50.67;;;23.53;;
7432;SDS011;32233;49.500;7.764;2023-02-15T03:22:18;65.77;;;23.53;;
7432;SDS011;32233;49.500;7.764;2023-02-15T03:27:24;53.80;;;23.50;;
7432;SDS011;32233;49.500;7.764;2023-02-15T03:29:54;51.43;;;24.00;;
7432;SDS011;32233;49.500;7.764;2023-02-15T03:32:24;58.17;;;24.80;;
7432;SDS011;32233;49.500;7.764;2023-02-15T03:34:54;48.03;;;23.00;;
7432;SDS011;32233;49.500;7.764;2023-02-15T03:37:29;51.90;;;22.37;;
7432;SDS011;32233;49.500;7.764;2023-02-15T03:43:48;47.80;;;21.43;;
7432;SDS011;32233;49.500;7.764;2023-02-15T03:46:18;50.30;;;22.90;;
7432;SDS011;32233;49.500;7.764;2023-02-15T03:49:07;49.63;;;22.33;;
7432;SDS011;32233;49.500;7.764;2023-02-15T03:51:39;49.03;;;22.33;;
7432;SDS011;32233;49.500;7.764;2023-02-15T03:54:13;46.87;;;22.60;;
7432;SDS011;32233;49.500;7.764;2023-02-15T03:57:07;48.57;;;21.63;;
7432;SDS011;32233;49.500;7.764;2023-02-15T04:00:09;50.83;;;21.97;;
7432;SDS011;32233;49.500;7.764;2023-02-15T04:05:41;53.87;;;22.63;;
7432;SDS011;32233;49.500;7.764;2023-02-15T04:08:09;50.37;;;23.10;;
7432;SDS011;32233;49.500;7.764;2023-02-15T04:10:37;52.27;;;22.27;;
7432;SDS011;32233;49.500;7.764;2023-02-15T04:13:20;51.57;;;23.13;;
7432;SDS011;32233;49.500;7.764;2023-02-15T04:15:47;48.80;;;22.90;;
7432;SDS011;32233;49.500;7.764;2023-02-15T04:18:32;47.17;;;22.87;;
7432;SDS011;32233;49.500;7.764;2023-02-15T04:21:19;50.57;;;22.40;;
7432;SDS011;32233;49.500;7.764;2023-02-15T04:24:06;52.27;;;21.23;;
7432;SDS011;32233;49.500;7.764;2023-02-15T04:26:51;48.03;;;20.63;;
7432;SDS011;32233;49.500;7.764;2023-02-15T04:29:24;52.63;;;22.13;;
7432;SDS011;32233;49.500;7.764;2023-02-15T04:31:52;55.77;;;21.93;;
7432;SDS011;32233;49.500;7.764;2023-02-15T04:34:20;50.10;;;22.53;;
7432;SDS011;32233;49.500;7.764;2023-02-15T04:36:46;50.77;;;22.03;;
7432;SDS011;32233;49.500;7.764;2023-02-15T04:39:13;49.47;;;22.60;;
7432;SDS011;32233;49.500;7.764;2023-02-15T04:41:41;53.27;;;21.97;;
7432;SDS011;32233;49.500;7.764;2023-02-15T04:44:08;43.40;;;21.17;;
7432;SDS011;32233;49.500;7.764;2023-02-15T04:46:34;43.80;;;20.63;;
7432;SDS011;32233;49.500;7.764;2023-02-15T04:49:01;45.17;;;21.17;;
7432;SDS011;32233;49.500;7.764;2023-02-15T04:51:28;49.53;;;21.77;;
7432;SDS011;32233;49.500;7.764;2023-02-15T04:53:54;61.53;;;21.97;;
7432;SDS011;32233;49.500;7.764;2023-02-15T04:56:22;46.87;;;21.53;;
7432;SDS011;32233;49.500;7.764;2023-02-15T04:58:48;46.57;;;19.83;;
7432;SDS011;32233;49.500;7.764;2023-02-15T05:01:15;43.10;;;21.37;;
7432;SDS011;32233;49.500;7.764;2023-02-15T05:03:42;45.07;;;20.60;;
7432;SDS011;32233;49.500;7.764;2023-02-15T05:06:08;42.17;;;19.97;;
7432;SDS011;32233;49.500;7.764;2023-02-15T05:08:34;41.47;;;20.13;;
7432;SDS011;32233;49.500;7.764;2023-02-15T05:11:01;41.40;;;19.60;;
7432;SDS011;32233;49.500;7.764;2023-02-15T05:13:27;44.43;;;20.33;;
7432;SDS011;32233;49.500;7.764;2023-02-15T05:15:54;44.27;;;20.73;;
7432;SDS011;32233;49.500;7.764;2023-02-15T05:18:21;40.50;;;19.53;;
7432;SDS011;32233;49.500;7.764;2023-02-15T05:20:48;40.10;;;19.27;;
7432;SDS011;32233;49.500;7.764;2023-02-15T05:23:15;42.13;;;18.97;;
7432;SDS011;32233;49.500;7.764;2023-02-15T05:25:45;45.90;;;20.60;;
7432;SDS011;32233;49.500;7.764;2023-02-15T05:28:34;44.87;;;20.23;;
7432;SDS011;32233;49.500;7.764;2023-02-15T05:33:45;43.40;;;20.27;;
7432;SDS011;32233;49.500;7.764;2023-02-15T05:36:12;36.43;;;19.27;;
7432;SDS011;32233;49.500;7.764;2023-02-15T05:38:39;38.23;;;18.33;;
7432;SDS011;32233;49.500;7.764;2023-02-15T05:41:06;40.90;;;19.67;;
7432;SDS011;32233;49.500;7.764;2023-02-15T05:43:33;39.93;;;19.37;;
7432;SDS011;32233;49.500;7.764;2023-02-15T05:46:00;52.53;;;19.43;;
7432;SDS011;32233;49.500;7.764;2023-02-15T05:48:28;34.30;;;17.87;;
7432;SDS011;32233;49.500;7.764;2023-02-15T05:50:58;38.73;;;18.40;;
7432;SDS011;32233;49.500;7.764;2023-02-15T05:53:28;37.17;;;18.60;;
7432;SDS011;32233;49.500;7.764;2023-02-15T05:55:55;39.20;;;18.63;;
7432;SDS011;32233;49.500;7.764;2023-02-15T05:58:26;37.17;;;18.37;;
7432;SDS011;32233;49.500;7.764;2023-02-15T06:00:54;40.27;;;18.60;;
7432;SDS011;32233;49.500;7.764;2023-02-15T06:03:21;35.23;;;18.03;;
7432;SDS011;32233;49.500;7.764;2023-02-15T06:05:49;34.83;;;17.87;;
7432;SDS011;32233;49.500;7.764;2023-02-15T06:08:15;40.17;;;18.57;;
7432;SDS011;32233;49.500;7.764;2023-02-15T06:10:42;36.80;;;19.10;;
7432;SDS011;32233;49.500;7.764;2023-02-15T06:13:08;37.87;;;18.00;;
7432;SDS011;32233;49.500;7.764;2023-02-15T06:15:35;41.67;;;18.37;;
7432;SDS011;32233;49.500;7.764;2023-02-15T06:18:01;39.10;;;18.17;;
7432;SDS011;32233;49.500;7.764;2023-02-15T06:20:28;38.83;;;17.93;;
7432;SDS011;32233;49.500;7.764;2023-02-15T06:22:54;42.73;;;18.80;;
7432;SDS011;32233;49.500;7.764;2023-02-15T06:25:21;40.07;;;18.00;;
7432;SDS011;32233;49.500;7.764;2023-02-15T06:27:47;49.97;;;17.77;;
7432;SDS011;32233;49.500;7.764;2023-02-15T06:30:15;39.53;;;17.90;;
7432;SDS011;32233;49.500;7.764;2023-02-15T06:32:42;34.23;;;17.23;;
7432;SDS011;32233;49.500;7.764;2023-02-15T06:35:08;38.17;;;18.67;;
7432;SDS011;32233;49.500;7.764;2023-02-15T06:37:37;35.70;;;18.37;;
7432;SDS011;32233;49.500;7.764;2023-02-15T06:40:04;39.20;;;19.17;;
7432;SDS011;32233;49.500;7.764;2023-02-15T06:42:31;36.43;;;18.53;;
7432;SDS011;32233;49.500;7.764;2023-02-15T06:44:58;46.13;;;18.40;;
7432;SDS011;32233;49.500;7.764;2023-02-15T06:47:26;42.23;;;17.97;;
7432;SDS011;32233;49.500;7.764;2023-02-15T06:49:52;37.40;;;17.60;;
7432;SDS011;32233;49.500;7.764;2023-02-15T06:52:19;39.27;;;18.57;;
7432;SDS011;32233;49.500;7.764;2023-02-15T06:54:45;41.43;;;19.27;;
7432;SDS011;32233;49.500;7.764;2023-02-15T06:57:12;39.03;;;18.17;;
7432;SDS011;32233;49.500;7.764;2023-02-15T06:59:38;34.90;;;16.63;;
7432;SDS011;32233;49.500;7.764;2023-02-15T07:02:05;40.50;;;18.40;;
7432;SDS011;32233;49.500;7.764;2023-02-15T07:04:31;33.63;;;16.87;;
7432;SDS011;32233;49.500;7.764;2023-02-15T07:06:58;38.30;;;17.83;;
7432;SDS011;32233;49.500;7.764;2023-02-15T07:09:25;41.90;;;18.13;;
7432;SDS011;32233;49.500;7.764;2023-02-15T07:11:52;36.57;;;18.10;;
7432;SDS011;32233;49.500;7.764;2023-02-15T07:14:37;34.13;;;16.93;;
7432;SDS011;32233;49.500;7.764;2023-02-15T07:17:03;41.00;;;18.37;;
7432;SDS011;32233;49.500;7.764;2023-02-15T07:19:32;38.10;;;18.53;;
7432;SDS011;32233;49.500;7.764;2023-02-15T07:21:58;43.70;;;19.30;;
7432;SDS011;32233;49.500;7.764;2023-02-15T07:24:26;41.93;;;18.60;;
7432;SDS011;32233;49.500;7.764;2023-02-15T07:26:52;45.03;;;18.00;;
7432;SDS011;32233;49.500;7.764;2023-02-15T07:29:19;42.30;;;18.63;;
7432;SDS011;32233;49.500;7.764;2023-02-15T07:31:45;39.57;;;19.87;;
7432;SDS011;32233;49.500;7.764;2023-02-15T07:34:12;42.77;;;18.53;;
7432;SDS011;32233;49.500;7.764;2023-02-15T07:36:38;43.97;;;18.30;;
7432;SDS011;32233;49.500;7.764;2023-02-15T07:39:05;48.03;;;17.97;;
7432;SDS011;32233;49.500;7.764;2023-02-15T07:41:31;41.63;;;17.43;;
7432;SDS011;32233;49.500;7.764;2023-02-15T07:43:58;32.73;;;16.27;;
7432;SDS011;32233;49.500;7.764;2023-02-15T07:46:25;37.27;;;16.63;;
7432;SDS011;32233;49.500;7.764;2023-02-15T07:48:51;41.93;;;17.23;;
7432;SDS011;32233;49.500;7.764;2023-02-15T07:51:18;38.33;;;18.40;;
7432;SDS011;32233;49.500;7.764;2023-02-15T07:53:45;34.37;;;18.00;;
7432;SDS011;32233;49.500;7.764;2023-02-15T07:56:14;40.63;;;18.00;;
7432;SDS011;32233;49.500;7.764;2023-02-15T07:58:41;37.17;;;17.73;;
7432;SDS011;32233;49.500;7.764;2023-02-15T08:01:17;47.70;;;18.73;;
7432;SDS011;32233;49.500;7.764;2023-02-15T08:03:45;41.73;;;18.53;;
7432;SDS011;32233;49.500;7.764;2023-02-15T08:06:12;35.60;;;18.07;;
7432;SDS011;32233;49.500;7.764;2023-02-15T08:08:40;39.23;;;18.70;;
7432;SDS011;32233;49.500;7.764;2023-02-15T08:11:14;45.97;;;20.07;;
7432;SDS011;32233;49.500;7.764;2023-02-15T08:13:53;38.40;;;19.13;;
7432;SDS011;32233;49.500;7.764;2023-02-15T08:16:29;43.57;;;19.37;;
7432;SDS011;32233;49.500;7.764;2023-02-15T08:19:00;40.93;;;18.87;;
7432;SDS011;32233;49.500;7.764;2023-02-15T08:21:32;39.10;;;20.23;;
7432;SDS011;32233;49.500;7.764;2023-02-15T08:23:59;43.37;;;21.03;;
7432;SDS011;32233;49.500;7.764;2023-02-15T08:26:26;38.50;;;19.60;;
7432;SDS011;32233;49.500;7.764;2023-02-15T08:28:54;37.80;;;19.30;;
7432;SDS011;32233;49.500;7.764;2023-02-15T08:31:21;39.83;;;19.90;;
7432;SDS011;32233;49.500;7.764;2023-02-15T08:33:49;40.73;;;19.30;;
7432;SDS011;32233;49.500;7.764;2023-02-15T08:36:18;40.33;;;19.70;;
7432;SDS011;32233;49.500;7.764;2023-02-15T08:38:47;37.80;;;19.40;;
7432;SDS011;32233;49.500;7.764;2023-02-15T08:41:16;42.80;;;20.13;;
7432;SDS011;32233;49.500;7.764;2023-02-15T08:43:43;37.50;;;18.97;;
7432;SDS011;32233;49.500;7.764;2023-02-15T08:46:10;38.40;;;20.20;;
7432;SDS011;32233;49.500;7.764;2023-02-15T08:48:37;36.57;;;19.10;;
7432;SDS011;32233;49.500;7.764;2023-02-15T08:51:05;36.00;;;18.83;;
7432;SDS011;32233;49.500;7.764;2023-02-15T08:53:33;33.80;;;18.43;;
7432;SDS011;32233;49.500;7.764;2023-02-15T08:55:59;35.57;;;17.67;;
7432;SDS011;32233;49.500;7.764;2023-02-15T08:58:26;32.50;;;16.90;;
7432;SDS011;32233;49.500;7.764;2023-02-15T09:00:52;35.60;;;17.93;;
7432;SDS011;32233;49.500;7.764;2023-02-15T09:03:19;34.57;;;18.10;;
7432;SDS011;32233;49.500;7.764;2023-02-15T09:05:45;32.80;;;17.97;;
7432;SDS011;32233;49.500;7.764;2023-02-15T09:08:12;32.80;;;16.70;;
7432;SDS011;32233;49.500;7.764;2023-02-15T09:10:38;30.57;;;16.20;;
7432;SDS011;32233;49.500;7.764;2023-02-15T09:13:05;33.17;;;17.17;;
7432;SDS011;32233;49.500;7.764;2023-02-15T09:15:31;31.47;;;16.30;;
7432;SDS011;32233;49.500;7.764;2023-02-15T09:17:58;32.00;;;16.77;;
7432;SDS011;32233;49.500;7.764;2023-02-15T09:20:27;35.03;;;17.30;;
7432;SDS011;32233;49.500;7.764;2023-02-15T09:22:55;33.83;;;17.83;;
7432;SDS011;32233;49.500;7.764;2023-02-15T09:25:24;33.17;;;17.30;;
7432;SDS011;32233;49.500;7.764;2023-02-15T09:27:51;30.37;;;16.47;;
7432;SDS011;32233;49.500;7.764;2023-02-15T09:30:18;32.70;;;17.53;;
7432;SDS011;32233;49.500;7.764;2023-02-15T09:32:45;30.90;;;16.50;;
7432;SDS011;32233;49.500;7.764;2023-02-15T09:35:12;30.70;;;15.80;;
7432;SDS011;32233;49.500;7.764;2023-02-15T09:37:38;34.60;;;17.40;;
7432;SDS011;32233;49.500;7.764;2023-02-15T09:40:05;29.87;;;15.67;;
7432;SDS011;32233;49.500;7.764;2023-02-15T09:56:55;31.20;;;16.03;;
7432;SDS011;32233;49.500;7.764;2023-02-15T10:08:04;27.20;;;15.23;;
7432;SDS011;32233;49.500;7.764;2023-02-15T10:11:04;28.80;;;16.03;;
7432;SDS011;32233;49.500;7.764;2023-02-15T10:28:42;21.90;;;13.67;;
7432;SDS011;32233;49.500;7.764;2023-02-15T10:33:58;26.33;;;16.37;;
7432;SDS011;32233;49.500;7.764;2023-02-15T10:36:40;23.20;;;14.83;;
7432;SDS011;32233;49.500;7.764;2023-02-15T10:39:33;21.53;;;14.00;;
7432;SDS011;32233;49.500;7.764;2023-02-15T10:42:11;19.40;;;13.77;;
7432;SDS011;32233;49.500;7.764;2023-02-15T10:47:31;22.33;;;14.13;;
7432;SDS011;32233;49.500;7.764;2023-02-15T10:50:32;23.23;;;15.27;;
7432;SDS011;32233;49.500;7.764;2023-02-15T10:58:47;23.57;;;14.00;;
7432;SDS011;32233;49.500;7.764;2023-02-15T11:04:14;20.70;;;14.37;;
7432;SDS011;32233;49.500;7.764;2023-02-15T11:06:57;20.77;;;13.90;;
7432;SDS011;32233;49.500;7.764;2023-02-15T11:09:32;21.47;;;15.13;;
7432;SDS011;32233;49.500;7.764;2023-02-15T11:12:04;22.33;;;14.87;;
7432;SDS011;32233;49.500;7.764;2023-02-15T11:14:50;21.60;;;15.30;;
7432;SDS011;32233;49.500;7.764;2023-02-15T11:17:33;18.57;;;13.37;;
7432;SDS011;32233;49.500;7.764;2023-02-15T11:22:50;21.97;;;15.00;;
7432;SDS011;32233;49.500;7.764;2023-02-15T11:25:28;21.10;;;15.00;;
7432;SDS011;32233;49.500;7.764;2023-02-15T11:27:57;19.77;;;14.17;;
7432;SDS011;32233;49.500;7.764;2023-02-15T11:30:28;21.20;;;14.97;;
7432;SDS011;32233;49.500;7.764;2023-02-15T11:33:12;21.00;;;15.03;;
7432;SDS011;32233;49.500;7.764;2023-02-15T11:35:52;19.77;;;14.07;;
7432;SDS011;32233;49.500;7.764;2023-02-15T11:38:24;19.07;;;14.20;;
7432;SDS011;32233;49.500;7.764;2023-02-15T11:40:59;20.43;;;14.43;;
7432;SDS011;32233;49.500;7.764;2023-02-15T11:43:41;19.83;;;14.60;;
7432;SDS011;32233;49.500;7.764;2023-02-15T11:46:13;19.10;;;13.77;;
7432;SDS011;32233;49.500;7.764;2023-02-15T11:48:41;20.03;;;15.23;;
7432;SDS011;32233;49.500;7.764;2023-02-15T11:51:09;20.13;;;14.40;;
7432;SDS011;32233;49.500;7.764;2023-02-15T11:53:40;19.83;;;14.17;;
7432;SDS011;32233;49.500;7.764;2023-02-15T11:56:12;21.93;;;15.17;;
7432;SDS011;32233;49.500;7.764;2023-02-15T11:58:54;19.73;;;14.50;;
7432;SDS011;32233;49.500;7.764;2023-02-15T12:10:25;22.03;;;14.87;;
7432;SDS011;32233;49.500;7.764;2023-02-15T12:13:10;19.20;;;14.40;;
7432;SDS011;32233;49.500;7.764;2023-02-15T12:15:40;21.13;;;15.07;;
7432;SDS011;32233;49.500;7.764;2023-02-15T12:21:16;18.77;;;14.10;;
7432;SDS011;32233;49.500;7.764;2023-02-15T12:24:19;17.93;;;14.23;;
7432;SDS011;32233;49.500;7.764;2023-02-15T12:29:49;19.37;;;14.77;;
7432;SDS011;32233;49.500;7.764;2023-02-15T12:32:19;19.93;;;14.97;;
7432;SDS011;32233;49.500;7.764;2023-02-15T12:34:55;17.33;;;14.50;;
7432;SDS011;32233;49.500;7.764;2023-02-15T12:37:28;18.10;;;13.67;;
7432;SDS011;32233;49.500;7.764;2023-02-15T12:39:59;16.97;;;13.50;;
7432;SDS011;32233;49.500;7.764;2023-02-15T12:42:27;17.83;;;13.63;;
7432;SDS011;32233;49.500;7.764;2023-02-15T12:48:09;16.77;;;13.23;;
7432;SDS011;32233;49.500;7.764;2023-02-15T12:50:57;18.57;;;13.43;;
7432;SDS011;32233;49.500;7.764;2023-02-15T12:53:35;16.40;;;13.27;;
7432;SDS011;32233;49.500;7.764;2023-02-15T12:56:03;23.37;;;15.40;;
7432;SDS011;32233;49.500;7.764;2023-02-15T12:58:39;20.80;;;15.50;;
7432;SDS011;32233;49.500;7.764;2023-02-15T13:01:16;20.17;;;14.87;;
7432;SDS011;32233;49.500;7.764;2023-02-15T13:04:01;17.40;;;14.10;;
7432;SDS011;32233;49.500;7.764;2023-02-15T13:06:34;18.67;;;14.70;;
7432;SDS011;32233;49.500;7.764;2023-02-15T13:09:14;14.90;;;11.40;;
7432;SDS011;32233;49.500;7.764;2023-02-15T13:11:44;18.87;;;14.57;;
7432;SDS011;32233;49.500;7.764;2023-02-15T13:14:18;18.67;;;14.57;;
7432;SDS011;32233;49.500;7.764;2023-02-15T13:16:48;20.67;;;14.87;;
7432;SDS011;32233;49.500;7.764;2023-02-15T13:19:20;16.87;;;13.60;;
7432;SDS011;32233;49.500;7.764;2023-02-15T13:22:14;18.50;;;14.20;;
7432;SDS011;32233;49.500;7.764;2023-02-15T13:24:44;19.40;;;13.87;;
7432;SDS011;32233;49.500;7.764;2023-02-15T13:27:18;17.40;;;13.60;;
7432;SDS011;32233;49.500;7.764;2023-02-15T13:29:49;19.87;;;15.00;;
7432;SDS011;32233;49.500;7.764;2023-02-15T13:32:29;16.93;;;14.53;;
7432;SDS011;32233;49.500;7.764;2023-02-15T13:34:59;17.57;;;13.67;;
7432;SDS011;32233;49.500;7.764;2023-02-15T13:40:44;17.23;;;13.43;;
7432;SDS011;32233;49.500;7.764;2023-02-15T13:48:34;18.07;;;13.63;;
7432;SDS011;32233;49.500;7.764;2023-02-15T13:54:28;21.43;;;15.23;;
7432;SDS011;32233;49.500;7.764;2023-02-15T13:57:15;20.93;;;10.20;;
7432;SDS011;32233;49.500;7.764;2023-02-15T14:02:30;18.33;;;12.57;;
7432;SDS011;32233;49.500;7.764;2023-02-15T14:08:08;20.50;;;14.60;;
7432;SDS011;32233;49.500;7.764;2023-02-15T14:10:56;20.53;;;14.73;;
7432;SDS011;32233;49.500;7.764;2023-02-15T14:24:43;21.83;;;15.60;;
7432;SDS011;32233;49.500;7.764;2023-02-15T14:27:21;21.43;;;14.93;;
7432;SDS011;32233;49.500;7.764;2023-02-15T14:29:57;23.90;;;15.40;;
7432;SDS011;32233;49.500;7.764;2023-02-15T14:32:28;21.60;;;15.50;;
7432;SDS011;32233;49.500;7.764;2023-02-15T14:35:00;21.90;;;15.07;;
7432;SDS011;32233;49.500;7.764;2023-02-15T14:37:31;25.17;;;15.77;;
7432;SDS011;32233;49.500;7.764;2023-02-15T14:43:20;24.70;;;16.77;;
7432;SDS011;32233;49.500;7.764;2023-02-15T14:45:55;20.60;;;15.37;;
7432;SDS011;32233;49.500;7.764;2023-02-15T14:48:31;24.47;;;15.90;;
7432;SDS011;32233;49.500;7.764;2023-02-15T14:51:05;25.40;;;16.47;;
7432;SDS011;32233;49.500;7.764;2023-02-15T14:58:37;26.10;;;17.13;;
7432;SDS011;32233;49.500;7.764;2023-02-15T15:01:05;26.03;;;16.90;;
7432;SDS011;32233;49.500;7.764;2023-02-15T15:03:34;28.93;;;19.27;;
7432;SDS011;32233;49.500;7.764;2023-02-15T15:06:04;26.43;;;17.40;;
7432;SDS011;32233;49.500;7.764;2023-02-15T15:08:33;25.40;;;17.53;;
7432;SDS011;32233;49.500;7.764;2023-02-15T15:14:08;26.67;;;17.87;;
7432;SDS011;32233;49.500;7.764;2023-02-15T15:19:03;23.97;;;16.57;;
7432;SDS011;32233;49.500;7.764;2023-02-15T15:30:41;28.17;;;17.73;;
7432;SDS011;32233;49.500;7.764;2023-02-15T15:44:42;28.40;;;17.90;;
7432;SDS011;32233;49.500;7.764;2023-02-15T15:50:24;28.03;;;18.33;;
7432;SDS011;32233;49.500;7.764;2023-02-15T15:52:51;23.20;;;16.33;;
7432;SDS011;32233;49.500;7.764;2023-02-15T15:55:22;27.57;;;18.10;;
7432;SDS011;32233;49.500;7.764;2023-02-15T15:57:54;31.00;;;18.97;;
7432;SDS011;32233;49.500;7.764;2023-02-15T16:03:14;28.70;;;18.57;;
7432;SDS011;32233;49.500;7.764;2023-02-15T16:05:42;29.77;;;18.40;;
7432;SDS011;32233;49.500;7.764;2023-02-15T16:08:09;29.07;;;19.37;;
7432;SDS011;32233;49.500;7.764;2023-02-15T16:10:35;29.17;;;19.10;;
7432;SDS011;32233;49.500;7.764;2023-02-15T16:13:04;31.83;;;19.93;;
7432;SDS011;32233;49.500;7.764;2023-02-15T16:16:19;30.23;;;19.70;;
7432;SDS011;32233;49.500;7.764;2023-02-15T16:18:24;27.03;;;17.77;;
7432;SDS011;32233;49.500;7.764;2023-02-15T16:20:59;28.10;;;18.97;;
7432;SDS011;32233;49.500;7.764;2023-02-15T16:26:32;31.57;;;19.33;;
7432;SDS011;32233;49.500;7.764;2023-02-15T16:29:16;30.07;;;18.90;;
7432;SDS011;32233;49.500;7.764;2023-02-15T16:32:01;33.20;;;20.57;;
7432;SDS011;32233;49.500;7.764;2023-02-15T16:34:32;36.77;;;21.87;;
7432;SDS011;32233;49.500;7.764;2023-02-15T16:37:18;34.00;;;21.27;;
7432;SDS011;32233;49.500;7.764;2023-02-15T16:39:47;36.40;;;22.47;;
7432;SDS011;32233;49.500;7.764;2023-02-15T16:42:14;36.97;;;21.87;;
7432;SDS011;32233;49.500;7.764;2023-02-15T16:44:45;30.43;;;18.70;;
7432;SDS011;32233;49.500;7.764;2023-02-15T16:49:46;29.07;;;18.27;;
7432;SDS011;32233;49.500;7.764;2023-02-15T16:52:19;26.20;;;17.73;;
7432;SDS011;32233;49.500;7.764;2023-02-15T16:54:50;30.83;;;19.77;;
7432;SDS011;32233;49.500;7.764;2023-02-15T16:57:25;27.27;;;17.93;;
7432;SDS011;32233;49.500;7.764;2023-02-15T16:59:58;29.90;;;20.43;;
7432;SDS011;32233;49.500;7.764;2023-02-15T17:02:31;32.10;;;20.63;;
7432;SDS011;32233;49.500;7.764;2023-02-15T17:05:18;32.57;;;19.40;;
7432;SDS011;32233;49.500;7.764;2023-02-15T17:10:33;32.20;;;18.87;;
7432;SDS011;32233;49.500;7.764;2023-02-15T17:15:40;29.40;;;18.83;;
7432;SDS011;32233;49.500;7.764;2023-02-15T17:18:18;26.90;;;17.63;;
7432;SDS011;32233;49.500;7.764;2023-02-15T17:20:48;33.33;;;19.57;;
7432;SDS011;32233;49.500;7.764;2023-02-15T17:23:35;28.10;;;18.23;;
7432;SDS011;32233;49.500;7.764;2023-02-15T17:26:11;28.50;;;17.47;;
7432;SDS011;32233;49.500;7.764;2023-02-15T17:28:51;27.37;;;17.70;;
7432;SDS011;32233;49.500;7.764;2023-02-15T17:31:23;29.13;;;18.07;;
7432;SDS011;32233;49.500;7.764;2023-02-15T17:33:54;29.33;;;17.90;;
7432;SDS011;32233;49.500;7.764;2023-02-15T17:36:23;28.57;;;17.50;;
7432;SDS011;32233;49.500;7.764;2023-02-15T17:43:51;29.00;;;18.43;;
7432;SDS011;32233;49.500;7.764;2023-02-15T17:46:18;30.80;;;17.60;;
7432;SDS011;32233;49.500;7.764;2023-02-15T17:48:48;32.03;;;19.03;;
7432;SDS011;32233;49.500;7.764;2023-02-15T17:51:17;34.33;;;21.57;;
7432;SDS011;32233;49.500;7.764;2023-02-15T17:53:45;30.57;;;21.00;;
7432;SDS011;32233;49.500;7.764;2023-02-15T17:56:32;30.30;;;20.50;;
7432;SDS011;32233;49.500;7.764;2023-02-15T17:58:59;34.90;;;21.13;;
7432;SDS011;32233;49.500;7.764;2023-02-15T18:01:26;28.87;;;18.83;;
7432;SDS011;32233;49.500;7.764;2023-02-15T18:04:11;34.53;;;20.13;;
7432;SDS011;32233;49.500;7.764;2023-02-15T18:06:58;30.83;;;19.90;;
7432;SDS011;32233;49.500;7.764;2023-02-15T18:09:43;34.90;;;20.43;;